Time;durP1;ratioP1;P1;durP2;ratioP2;P2;SDS_P1;SDS_P2;PMS_P1;PMS_P2;Temp;Humidity;BMP_temperature;BMP_pressure;BME280_temperature;BME280_humidity;BME280_pressure;Samples;Min_cycle;Max_cycle;Signal;HPM_P1;HPM_P2
2023/07/14 00:00:40;;;;;;;2.08;1.73;;;;;;;;;;4386228;32;71318;-60
2023/07/14 00:03:27;;;;;;;2.05;1.70;;;;;;;;;;4387470;32;68376;-59
2023/07/14 00:06:14;;;;;;;2.78;2.03;;;;;;;;;;4387005;32;66822;-59
2023/07/14 00:09:01;;;;;;;3.97;2.10;;;;;;;;;;4386518;32;72205;-59
2023/07/14 00:11:48;;;;;;;7.85;2.20;;;;;;;;;;4397651;32;66207;-60
2023/07/14 00:14:34;;;;;;;2.28;2.08;;;;;;;;;;4387052;32;66908;-58
2023/07/14 00:17:21;;;;;;;3.65;1.90;;;;;;;;;;4386926;32;59596;-59
2023/07/14 00:20:20;;;;;;;;;;;;;;;;;;4397879;32;69865;-59
2023/07/14 00:23:11;;;;;;;3.75;1.92;;;;;;;;;;4375484;32;66888;-59
2023/07/14 00:25:59;;;;;;;2.72;1.92;;;;;;;;;;4396995;32;66837;-58
2023/07/14 00:28:48;;;;;;;3.17;2.10;;;;;;;;;;4386414;32;60261;-59
2023/07/14 00:31:34;;;;;;;3.10;2.03;;;;;;;;;;4397137;32;69684;-59
2023/07/14 00:34:21;;;;;;;;;;;;;;;;;;4375789;32;69680;-59
2023/07/14 00:37:08;;;;;;;2.92;1.90;;;;;;;;;;4398807;32;66734;-59
2023/07/14 00:39:54;;;;;;;2.85;2.15;;;;;;;;;;4375187;32;70670;-60
2023/07/14 00:42:43;;;;;;;2.58;1.95;;;;;;;;;;4386282;32;66834;-59
2023/07/14 00:45:32;;;;;;;2.65;1.80;;;;;;;;;;4398642;32;67538;-58
2023/07/14 00:48:22;;;;;;;2.55;1.90;;;;;;;;;;4386630;32;67605;-60
2023/07/14 00:51:14;;;;;;;2.60;1.85;;;;;;;;;;4375624;32;71854;-59
2023/07/14 00:54:00;;;;;;;3.53;1.90;;;;;;;;;;4375660;32;64707;-59
2023/07/14 00:56:49;;;;;;;2.67;1.62;;;;;;;;;;4364609;32;67106;-59
2023/07/14 00:59:37;;;;;;;4.62;2.25;;;;;;;;;;4376113;32;60271;-59
2023/07/14 01:02:24;;;;;;;3.25;2.20;;;;;;;;;;4386080;32;69652;-59
2023/07/14 01:05:12;;;;;;;3.60;2.20;;;;;;;;;;4375019;32;70780;-59
2023/07/14 01:07:59;;;;;;;2.85;2.00;;;;;;;;;;4385780;32;68385;-59
2023/07/14 01:10:46;;;;;;;2.60;2.12;;;;;;;;;;4386632;32;71806;-60
2023/07/14 01:13:33;;;;;;;2.72;2.30;;;;;;;;;;4375637;32;70484;-59
2023/07/14 01:16:19;;;;;;;;;;;;;;;;;;4386439;32;68988;-59
2023/07/14 01:19:15;;;;;;;2.80;2.00;;;;;;;;;;4390637;32;68149;-59
2023/07/14 01:22:23;;;;;;;4.07;2.20;;;;;;;;;;4390887;32;72004;-59
2023/07/14 01:25:28;;;;;;;2.70;1.92;;;;;;;;;;4390803;32;66600;-60
2023/07/14 01:28:16;;;;;;;2.70;2.15;;;;;;;;;;4403584;32;67523;-60
2023/07/14 01:31:04;;;;;;;3.40;2.15;;;;;;;;;;4392330;32;59906;-59
2023/07/14 01:33:52;;;;;;;3.58;1.85;;;;;;;;;;4387380;32;70201;-59
2023/07/14 01:36:39;;;;;;;2.22;1.90;;;;;;;;;;4387911;32;69346;-59
2023/07/14 01:39:28;;;;;;;2.25;1.80;;;;;;;;;;4399198;32;67532;-60
2023/07/14 01:42:14;;;;;;;3.87;2.30;;;;;;;;;;4379447;32;60985;-59
2023/07/14 01:45:01;;;;;;;3.75;1.90;;;;;;;;;;4401655;32;69556;-59
2023/07/14 01:47:51;;;;;;;2.37;2.00;;;;;;;;;;4379631;32;69894;-59
2023/07/14 01:50:45;;;;;;;2.95;2.03;;;;;;;;;;4397194;32;67982;-59
2023/07/14 01:53:49;;;;;;;3.55;2.42;;;;;;;;;;4383361;32;72201;-59
2023/07/14 01:56:36;;;;;;;4.53;2.80;;;;;;;;;;4386082;32;65823;-58
2023/07/14 01:59:28;;;;;;;4.00;2.20;;;;;;;;;;4378708;32;68247;-59
2023/07/14 02:02:24;;;;;;;5.22;2.00;;;;;;;;;;4397358;32;59260;-59
2023/07/14 02:05:20;;;;;;;4.03;2.28;;;;;;;;;;4385909;32;72252;-60
2023/07/14 02:08:10;;;;;;;5.62;2.50;;;;;;;;;;4397127;32;66518;-59
2023/07/14 02:10:57;;;;;;;2.67;2.00;;;;;;;;;;4375284;32;68529;-59
2023/07/14 02:13:43;;;;;;;6.15;2.40;;;;;;;;;;4376802;32;60284;-59
2023/07/14 02:16:30;;;;;;;;;;;;;;;;;;4390296;32;70328;-60
2023/07/14 02:19:25;;;;;;;3.78;2.10;;;;;;;;;;4391112;32;68800;-59
2023/07/14 02:22:12;;;;;;;2.83;2.30;;;;;;;;;;4369800;32;68240;-59
2023/07/14 02:24:59;;;;;;;3.75;2.20;;;;;;;;;;4379056;32;71494;-60
2023/07/14 02:27:46;;;;;;;3.67;2.25;;;;;;;;;;4365790;32;69408;-59
2023/07/14 02:30:36;;;;;;;3.87;2.08;;;;;;;;;;4398550;32;69658;-59
2023/07/14 02:33:26;;;;;;;3.10;2.20;;;;;;;;;;4399246;32;67012;-59
2023/07/14 02:36:27;;;;;;;3.17;2.40;;;;;;;;;;4398580;32;71862;-59
2023/07/14 02:39:14;;;;;;;4.00;2.62;;;;;;;;;;4398793;32;66244;-60
2023/07/14 02:42:01;;;;;;;;;;;;;;;;;;4388027;32;68317;-59
2023/07/14 02:44:48;;;;;;;5.53;3.12;;;;;;;;;;4388819;32;59822;-59
2023/07/14 02:47:37;;;;;;;4.43;2.75;;;;;;;;;;4399196;32;70538;-58
2023/07/14 02:50:24;;;;;;;3.20;2.40;;;;;;;;;;4376810;32;68497;-59
2023/07/14 02:53:10;;;;;;;;;;;;;;;;;;4377433;32;67037;-59
2023/07/14 02:55:57;;;;;;;3.47;2.50;;;;;;;;;;4398976;32;58994;-59
2023/07/14 02:58:49;;;;;;;;;;;;;;;;;;4388086;32;69877;-59
2023/07/14 03:01:36;;;;;;;3.20;2.08;;;;;;;;;;4400081;32;68968;-59
2023/07/14 03:04:23;;;;;;;3.40;2.30;;;;;;;;;;4387851;32;66632;-59
2023/07/14 03:07:10;;;;;;;3.25;2.20;;;;;;;;;;4387199;32;70360;-59
2023/07/14 03:09:56;;;;;;;3.47;2.30;;;;;;;;;;4387993;32;65753;-59
2023/07/14 03:12:44;;;;;;;3.00;2.20;;;;;;;;;;4387457;32;67518;-59
2023/07/14 03:15:30;;;;;;;2.70;1.95;;;;;;;;;;4398643;32;59224;-58
2023/07/14 03:18:17;;;;;;;2.17;1.92;;;;;;;;;;4386695;32;72700;-59
2023/07/14 03:21:03;;;;;;;;;;;;;;;;;;4387928;32;66004;-58
2023/07/14 03:23:50;;;;;;;3.62;2.33;;;;;;;;;;4398307;32;68437;-59
2023/07/14 03:26:37;;;;;;;2.92;1.75;;;;;;;;;;4376017;32;61363;-59
2023/07/14 03:29:23;;;;;;;;;;;;;;;;;;4399591;32;69588;-58
2023/07/14 03:32:16;;;;;;;3.15;2.20;;;;;;;;;;4399595;32;69489;-59
2023/07/14 03:35:03;;;;;;;2.08;1.65;;;;;;;;;;4376037;32;67339;-59
2023/07/14 03:37:50;;;;;;;2.10;1.90;;;;;;;;;;4376031;32;71392;-59
2023/07/14 03:40:37;;;;;;;2.95;1.90;;;;;;;;;;4376397;32;66876;-60
2023/07/14 03:43:23;;;;;;;;;;;;;;;;;;4387639;32;69267;-59
2023/07/14 03:46:11;;;;;;;2.58;1.80;;;;;;;;;;4387637;32;67629;-59
2023/07/14 03:48:58;;;;;;;2.58;1.87;;;;;;;;;;4375595;32;72524;-59
2023/07/14 03:51:44;;;;;;;;;;;;;;;;;;4398489;32;65961;-58
2023/07/14 03:54:31;;;;;;;5.03;2.53;;;;;;;;;;4397867;32;68098;-60
2023/07/14 03:57:18;;;;;;;3.70;2.40;;;;;;;;;;4376171;32;58493;-59
2023/07/14 04:00:14;;;;;;;;;;;;;;;;;;4398118;32;70424;-59
2023/07/14 04:03:05;;;;;;;4.68;2.20;;;;;;;;;;4378229;32;69618;-58
2023/07/14 04:05:52;;;;;;;2.92;1.77;;;;;;;;;;4375849;32;67452;-60
2023/07/14 04:08:39;;;;;;;3.53;2.00;;;;;;;;;;4386848;32;59702;-59
2023/07/14 04:11:26;;;;;;;2.95;1.80;;;;;;;;;;4386143;32;71173;-58
2023/07/14 04:14:12;;;;;;;;;;;;;;;;;;4387235;32;69255;-59
2023/07/14 04:16:59;;;;;;;3.80;2.22;;;;;;;;;;4397781;32;67740;-59
2023/07/14 04:19:46;;;;;;;4.05;2.20;;;;;;;;;;4365061;32;69956;-59
2023/07/14 04:22:33;;;;;;;3.75;2.10;;;;;;;;;;4375448;32;66935;-59
2023/07/14 04:25:19;;;;;;;3.42;2.22;;;;;;;;;;4397546;32;66914;-59
2023/07/14 04:28:05;;;;;;;;;;;;;;;;;;4376459;32;60278;-59
2023/07/14 04:31:00;;;;;;;3.60;2.30;;;;;;;;;;4386688;32;69860;-59
2023/07/14 04:33:48;;;;;;;1.90;1.62;;;;;;;;;;4376081;32;66394;-58
2023/07/14 04:36:35;;;;;;;2.30;1.80;;;;;;;;;;4396894;32;67953;-58
2023/07/14 04:39:25;;;;;;;3.53;1.80;;;;;;;;;;4386873;32;60033;-58
2023/07/14 04:42:12;;;;;;;3.72;2.20;;;;;;;;;;4376492;32;69800;-58
2023/07/14 04:44:59;;;;;;;3.75;1.73;;;;;;;;;;4386570;32;68101;-59
2023/07/14 04:47:46;;;;;;;;;;;;;;;;;;4387006;32;66660;-58
2023/07/14 04:50:34;;;;;;;5.57;1.90;;;;;;;;;;4397461;32;72106;-58
2023/07/14 04:53:20;;;;;;;2.50;2.00;;;;;;;;;;4385855;32;66139;-59
2023/07/14 04:56:07;;;;;;;2.60;1.87;;;;;;;;;;4385833;32;69951;-59
2023/07/14 04:58:54;;;;;;;2.78;1.65;;;;;;;;;;4385638;32;68177;-59
2023/07/14 05:01:41;;;;;;;3.17;1.90;;;;;;;;;;4385461;32;72176;-59
2023/07/14 05:04:29;;;;;;;;;;;;;;;;;;4386141;32;67192;-59
2023/07/14 05:07:19;;;;;;;2.17;1.67;;;;;;;;;;4375147;32;67117;-59
2023/07/14 05:10:06;;;;;;;3.42;2.00;;;;;;;;;;4386799;32;60408;-59
2023/07/14 05:12:54;;;;;;;1.62;1.50;;;;;;;;;;4387339;32;70528;-59
2023/07/14 05:15:45;;;;;;;3.17;1.85;;;;;;;;;;4387569;32;69728;-59
2023/07/14 05:18:31;;;;;;;2.80;1.65;;;;;;;;;;4374936;32;68063;-59
2023/07/14 05:21:18;;;;;;;4.20;1.98;;;;;;;;;;4396551;32;60862;-58
2023/07/14 05:24:05;;;;;;;2.37;1.95;;;;;;;;;;4374582;32;71232;-59
2023/07/14 05:26:51;;;;;;;2.83;1.80;;;;;;;;;;4374535;32;69652;-59
2023/07/14 05:29:38;;;;;;;3.17;1.98;;;;;;;;;;4375377;32;66710;-59
2023/07/14 05:32:24;;;;;;;3.47;1.62;;;;;;;;;;4396561;32;71407;-59
2023/07/14 05:35:13;;;;;;;2.92;1.62;;;;;;;;;;4396712;32;65823;-58
2023/07/14 05:38:02;;;;;;;3.90;2.00;;;;;;;;;;4386534;32;68185;-58
2023/07/14 05:40:52;;;;;;;;;;;;;;;;;;4397374;32;59868;-59
2023/07/14 05:43:38;;;;;;;2.28;1.70;;;;;;;;;;4374436;32;70734;-60
2023/07/14 05:46:26;;;;;;;2.00;1.50;;;;;;;;;;4397837;32;66294;-59
2023/07/14 05:49:12;;;;;;;3.12;1.90;;;;;;;;;;4397740;32;68938;-59
2023/07/14 05:51:59;;;;;;;3.08;1.87;;;;;;;;;;4388381;32;59765;-60
2023/07/14 05:54:47;;;;;;;3.33;2.05;;;;;;;;;;4388540;32;69526;-59
2023/07/14 05:57:36;;;;;;;2.20;2.00;;;;;;;;;;4389022;32;69246;-58
2023/07/14 06:00:23;;;;;;;3.30;1.80;;;;;;;;;;4388905;32;67139;-59
2023/07/14 06:03:16;;;;;;;2.67;1.42;;;;;;;;;;4398978;32;70864;-59
2023/07/14 06:06:05;;;;;;;1.48;1.35;;;;;;;;;;4388645;32;66195;-59
2023/07/14 06:08:53;;;;;;;2.70;1.55;;;;;;;;;;4388395;32;67135;-59
2023/07/14 06:11:40;;;;;;;2.20;1.45;;;;;;;;;;4399159;32;67670;-57
2023/07/14 06:14:27;;;;;;;2.30;1.45;;;;;;;;;;4387804;32;71901;-59
2023/07/14 06:17:13;;;;;;;2.45;1.50;;;;;;;;;;4398917;32;66233;-58
2023/07/14 06:20:00;;;;;;;2.97;1.65;;;;;;;;;;4377244;32;68352;-57
2023/07/14 06:22:48;;;;;;;2.30;1.75;;;;;;;;;;4377229;32;60830;-59
2023/07/14 06:25:35;;;;;;;2.12;1.60;;;;;;;;;;4387608;32;71301;-58
2023/07/14 06:28:21;;;;;;;2.47;1.50;;;;;;;;;;4388128;32;69496;-59
2023/07/14 06:31:09;;;;;;;2.33;1.40;;;;;;;;;;4400142;32;67607;-57
2023/07/14 06:33:56;;;;;;;2.15;1.65;;;;;;;;;;4388170;32;71676;-57
2023/07/14 06:36:43;;;;;;;1.95;1.40;;;;;;;;;;4398727;32;70436;-58
2023/07/14 06:39:31;;;;;;;5.78;2.22;;;;;;;;;;4377419;32;68366;-59
2023/07/14 06:42:17;;;;;;;4.62;2.22;;;;;;;;;;4377181;32;67183;-59
2023/07/14 06:45:05;;;;;;;4.22;2.08;;;;;;;;;;4387286;32;72470;-58
2023/07/14 06:47:52;;;;;;;3.22;1.92;;;;;;;;;;4388035;32;65498;-58
2023/07/14 06:50:39;;;;;;;1.60;1.50;;;;;;;;;;4376724;32;68535;-60
2023/07/14 06:53:26;;;;;;;3.05;1.73;;;;;;;;;;4388024;32;59236;-59
2023/07/14 06:56:13;;;;;;;2.10;1.73;;;;;;;;;;4376971;32;69719;-57
2023/07/14 06:59:02;;;;;;;1.95;1.60;;;;;;;;;;4365766;32;70285;-58
2023/07/14 07:01:48;;;;;;;2.75;1.77;;;;;;;;;;4376725;32;67563;-57
2023/07/14 07:04:35;;;;;;;2.33;1.90;;;;;;;;;;4387948;32;60111;-57
2023/07/14 07:07:22;;;;;;;1.75;1.27;;;;;;;;;;4397818;32;70253;-58
2023/07/14 07:10:09;;;;;;;2.22;1.77;;;;;;;;;;4376295;32;69842;-58
2023/07/14 07:12:56;;;;;;;3.05;1.90;;;;;;;;;;4387223;32;68206;-58
2023/07/14 07:15:43;;;;;;;4.25;2.42;;;;;;;;;;4386928;32;70425;-59
2023/07/14 07:18:29;;;;;;;2.17;1.70;;;;;;;;;;4376212;32;67138;-59
2023/07/14 07:21:16;;;;;;;2.40;1.73;;;;;;;;;;4387187;32;66697;-59
2023/07/14 07:24:06;;;;;;;1.67;1.48;;;;;;;;;;4387491;32;67875;-57
2023/07/14 07:26:52;;;;;;;2.70;1.60;;;;;;;;;;4376423;32;71553;-57
2023/07/14 07:29:42;;;;;;;2.25;1.40;;;;;;;;;;4397982;32;65943;-59
2023/07/14 07:32:29;;;;;;;3.47;1.45;;;;;;;;;;4387612;32;67176;-59
2023/07/14 07:35:17;;;;;;;2.05;1.55;;;;;;;;;;4398533;32;60292;-59
2023/07/14 07:38:03;;;;;;;1.80;1.12;;;;;;;;;;4398100;32;70150;-59
2023/07/14 07:40:50;;;;;;;2.37;1.45;;;;;;;;;;4387303;32;70133;-58
2023/07/14 07:43:38;;;;;;;1.80;1.55;;;;;;;;;;4398222;32;68296;-58
2023/07/14 07:46:27;;;;;;;4.37;1.50;;;;;;;;;;4398283;32;71997;-58
2023/07/14 07:49:14;;;;;;;3.28;1.73;;;;;;;;;;4386835;32;71612;-57
2023/07/14 07:52:01;;;;;;;1.73;1.62;;;;;;;;;;4387267;32;68725;-57
2023/07/14 07:54:47;;;;;;;1.45;1.35;;;;;;;;;;4397220;32;66716;-58
2023/07/14 07:57:34;;;;;;;2.10;1.90;;;;;;;;;;4376349;32;71322;-58
2023/07/14 08:00:22;;;;;;;2.37;1.85;;;;;;;;;;4376849;32;66096;-58
2023/07/14 08:03:09;;;;;;;2.42;1.40;;;;;;;;;;4375728;32;67322;-60
2023/07/14 08:06:04;;;;;;;2.12;1.42;;;;;;;;;;4387297;32;59037;-57
2023/07/14 08:08:52;;;;;;;2.05;1.85;;;;;;;;;;4387039;32;69828;-58
2023/07/14 08:11:39;;;;;;;2.42;1.52;;;;;;;;;;4396248;32;70031;-57
2023/07/14 08:14:26;;;;;;;2.25;1.67;;;;;;;;;;4386165;32;69089;-58
2023/07/14 08:17:14;;;;;;;1.67;1.40;;;;;;;;;;4376432;32;60326;-58
2023/07/14 08:20:01;;;;;;;2.08;1.75;;;;;;;;;;4375731;32;68426;-57
2023/07/14 08:22:47;;;;;;;;;;;;;;;;;;4365636;32;70057;-58
2023/07/14 08:25:34;;;;;;;1.60;1.48;;;;;;;;;;4397959;32;67238;-58
2023/07/14 08:28:21;;;;;;;3.75;1.33;;;;;;;;;;4397695;32;71587;-58
2023/07/14 08:31:12;;;;;;;1.85;1.60;;;;;;;;;;4387296;32;66277;-59
2023/07/14 08:33:59;;;;;;;2.97;1.87;;;;;;;;;;4397397;32;67710;-58
2023/07/14 08:36:48;;;;;;;1.80;1.45;;;;;;;;;;4364801;32;59896;-59
2023/07/14 08:39:35;;;;;;;3.25;1.80;;;;;;;;;;4385824;32;72397;-59
2023/07/14 08:42:54;;;;;;;1.62;1.40;;;;;;;;;;4364915;32;65999;-59
2023/07/14 08:45:44;;;;;;;1.52;1.42;;;;;;;;;;4398617;32;67105;-59
2023/07/14 08:48:40;;;;;;;3.20;1.75;;;;;;;;;;4365183;32;60633;-59
2023/07/14 08:51:38;;;;;;;3.95;1.70;;;;;;;;;;4375480;32;71537;-59
2023/07/14 08:54:30;;;;;;;2.62;1.52;;;;;;;;;;4385794;32;68266;-60
2023/07/14 08:57:20;;;;;;;1.85;1.27;;;;;;;;;;4386486;32;66763;-58
2023/07/14 09:00:14;;;;;;;2.50;1.70;;;;;;;;;;4364177;32;72634;-59
2023/07/14 09:03:14;;;;;;;3.35;2.10;;;;;;;;;;4386642;32;66071;-58
2023/07/14 09:06:24;;;;;;;1.90;1.70;;;;;;;;;;4364320;32;70209;-58
2023/07/14 09:09:31;;;;;;;1.98;1.10;;;;;;;;;;4385440;32;67546;-59
2023/07/14 09:12:51;;;;;;;1.30;1.20;;;;;;;;;;4385835;32;70955;-59
2023/07/14 09:15:38;;;;;;;2.15;1.42;;;;;;;;;;4375477;32;66549;-58
2023/07/14 09:18:36;;;;;;;2.00;1.10;;;;;;;;;;4386106;32;67892;-58
2023/07/14 09:21:32;;;;;;;1.37;1.10;;;;;;;;;;4374896;32;60410;-57
2023/07/14 09:24:48;;;;;;;2.85;1.52;;;;;;;;;;4374826;32;68884;-57
2023/07/14 09:27:34;;;;;;;1.58;1.30;;;;;;;;;;4397521;32;68438;-57
2023/07/14 09:30:27;;;;;;;1.80;1.40;;;;;;;;;;4385579;32;68378;-59
2023/07/14 09:33:16;;;;;;;1.10;0.98;;;;;;;;;;4386442;32;59092;-59
2023/07/14 09:36:08;;;;;;;2.05;1.27;;;;;;;;;;4375143;32;70586;-58
2023/07/14 09:38:59;;;;;;;1.48;1.37;;;;;;;;;;4396613;32;69558;-58
2023/07/14 09:41:46;;;;;;;1.30;1.20;;;;;;;;;;4386254;32;66524;-59
2023/07/14 09:44:33;;;;;;;1.52;1.30;;;;;;;;;;4385009;32;72482;-59
2023/07/14 09:47:21;;;;;;;1.67;1.40;;;;;;;;;;4374705;32;68289;-59
2023/07/14 09:50:14;;;;;;;3.67;1.60;;;;;;;;;;4374761;32;68443;-58
2023/07/14 09:53:06;;;;;;;3.65;1.73;;;;;;;;;;4364173;32;60641;-58
2023/07/14 09:55:56;;;;;;;1.23;1.00;;;;;;;;;;4397633;32;70797;-60
2023/07/14 09:59:03;;;;;;;1.62;1.37;;;;;;;;;;4374290;32;66791;-58
2023/07/14 10:01:56;;;;;;;1.45;1.17;;;;;;;;;;4396365;32;67100;-59
2023/07/14 10:04:47;;;;;;;1.37;1.25;;;;;;;;;;4375081;32;59079;-60
2023/07/14 10:07:40;;;;;;;3.17;1.52;;;;;;;;;;4375211;32;69548;-59
2023/07/14 10:10:28;;;;;;;1.98;1.62;;;;;;;;;;4386574;32;68532;-61
2023/07/14 10:13:22;;;;;;;2.22;1.25;;;;;;;;;;4385092;32;68271;-59
2023/07/14 10:16:16;;;;;;;2.78;1.17;;;;;;;;;;4396351;32;70982;-60
2023/07/14 10:19:13;;;;;;;1.40;1.20;;;;;;;;;;4386034;32;65047;-59
2023/07/14 10:22:09;;;;;;;1.85;1.27;;;;;;;;;;4374893;32;68539;-59
2023/07/14 10:24:58;;;;;;;1.40;1.30;;;;;;;;;;4385480;32;67408;-59
2023/07/14 10:28:15;;;;;;;1.48;1.27;;;;;;;;;;4374593;32;71934;-59
2023/07/14 10:31:21;;;;;;;1.65;1.23;;;;;;;;;;4385483;32;66012;-59
2023/07/14 10:34:08;;;;;;;2.15;1.40;;;;;;;;;;4386336;32;66989;-59
2023/07/14 10:36:58;;;;;;;1.20;1.10;;;;;;;;;;4376919;32;60764;-58
2023/07/14 10:39:49;;;;;;;2.33;1.52;;;;;;;;;;4388550;32;70506;-59
2023/07/14 10:42:39;;;;;;;1.35;1.25;;;;;;;;;;4366292;32;69043;-59
2023/07/14 10:45:28;;;;;;;1.25;1.12;;;;;;;;;;4388148;32;68062;-59
2023/07/14 10:48:18;;;;;;;1.23;1.10;;;;;;;;;;4388402;32;59111;-58
2023/07/14 10:51:29;;;;;;;1.37;1.27;;;;;;;;;;4377644;32;70257;-64
2023/07/14 10:54:35;;;;;;;1.75;1.20;;;;;;;;;;4388343;32;68301;-57
2023/07/14 10:57:49;;;;;;;1.45;1.08;;;;;;;;;;4399773;32;67972;-59
2023/07/14 11:00:37;;;;;;;1.17;0.90;;;;;;;;;;4398220;32;71600;-59
2023/07/14 11:03:40;;;;;;;1.55;1.35;;;;;;;;;;4398979;32;65886;-59
2023/07/14 11:06:30;;;;;;;1.15;1.05;;;;;;;;;;4376559;32;66453;-59
2023/07/14 11:09:17;;;;;;;3.30;1.90;;;;;;;;;;4387928;32;59250;-60
2023/07/14 11:12:22;;;;;;;2.08;1.40;;;;;;;;;;4386623;32;71518;-58
2023/07/14 11:15:20;;;;;;;1.50;1.25;;;;;;;;;;4398105;32;65899;-60
2023/07/14 11:18:22;;;;;;;2.15;1.20;;;;;;;;;;4398588;32;66988;-59
2023/07/14 11:21:22;;;;;;;1.87;1.15;;;;;;;;;;4387751;32;60066;-59
2023/07/14 11:24:12;;;;;;;1.42;1.05;;;;;;;;;;4376828;32;70560;-59
2023/07/14 11:27:32;;;;;;;1.48;1.00;;;;;;;;;;4387112;32;69232;-59
2023/07/14 11:30:41;;;;;;;1.37;0.85;;;;;;;;;;4376028;32;65859;-59
2023/07/14 11:33:46;;;;;;;1.92;0.93;;;;;;;;;;4376580;32;71695;-59
2023/07/14 11:36:52;;;;;;;2.83;1.08;;;;;;;;;;4397601;32;65785;-59
2023/07/14 11:39:52;;;;;;;1.10;1.00;;;;;;;;;;4387450;32;68124;-59
2023/07/14 11:42:39;;;;;;;1.48;1.20;;;;;;;;;;4376756;32;66790;-60
2023/07/14 11:45:28;;;;;;;2.03;1.10;;;;;;;;;;4376450;32;71570;-58
2023/07/14 11:48:24;;;;;;;1.20;1.10;;;;;;;;;;4376609;32;66086;-60
2023/07/14 11:51:17;;;;;;;1.40;1.25;;;;;;;;;;4398111;32;67142;-59
2023/07/14 11:54:20;;;;;;;1.60;1.17;;;;;;;;;;4376674;32;59852;-59
2023/07/14 11:57:13;;;;;;;2.03;1.27;;;;;;;;;;4376405;32;70570;-59
2023/07/14 12:00:22;;;;;;;1.23;1.12;;;;;;;;;;4387046;32;68983;-59
2023/07/14 12:03:24;;;;;;;1.73;1.25;;;;;;;;;;4387199;32;67781;-59
2023/07/14 12:06:21;;;;;;;1.00;0.85;;;;;;;;;;4387285;32;59021;-59
2023/07/14 12:09:19;;;;;;;2.35;1.40;;;;;;;;;;4376189;32;70843;-60
2023/07/14 12:12:08;;;;;;;2.05;1.10;;;;;;;;;;4387016;32;68243;-58
2023/07/14 12:14:55;;;;;;;1.48;1.30;;;;;;;;;;4386441;32;66119;-58
2023/07/14 12:17:45;;;;;;;3.33;1.52;;;;;;;;;;4386596;32;71968;-59
2023/07/14 12:20:36;;;;;;;2.58;1.35;;;;;;;;;;4386406;32;66917;-59
2023/07/14 12:23:28;;;;;;;1.80;1.10;;;;;;;;;;4397612;32;67703;-59
2023/07/14 12:26:17;;;;;;;1.50;1.27;;;;;;;;;;4386605;32;59417;-58
2023/07/14 12:29:14;;;;;;;1.70;1.58;;;;;;;;;;4386026;32;71142;-57
2023/07/14 12:32:02;;;;;;;1.67;1.30;;;;;;;;;;4397212;32;66488;-60
2023/07/14 12:34:48;;;;;;;1.75;1.37;;;;;;;;;;4398742;32;67122;-59
2023/07/14 12:37:35;;;;;;;1.52;1.42;;;;;;;;;;4388794;32;59886;-59
2023/07/14 12:40:25;;;;;;;3.90;1.50;;;;;;;;;;4375513;32;70493;-59
2023/07/14 12:43:21;;;;;;;1.30;1.20;;;;;;;;;;4376128;32;69382;-58
2023/07/14 12:46:17;;;;;;;2.00;1.40;;;;;;;;;;4398568;32;67916;-59
2023/07/14 12:49:09;;;;;;;1.77;1.30;;;;;;;;;;4374904;32;71802;-59
2023/07/14 12:51:56;;;;;;;2.97;1.20;;;;;;;;;;4398346;32;65123;-59
2023/07/14 12:54:45;;;;;;;1.60;1.50;;;;;;;;;;4375387;32;65443;-59
2023/07/14 12:57:35;;;;;;;1.50;1.40;;;;;;;;;;4396744;32;66403;-59
2023/07/14 13:00:29;;;;;;;3.45;1.20;;;;;;;;;;4397104;32;70761;-59
2023/07/14 13:03:15;;;;;;;1.62;1.52;;;;;;;;;;4386237;32;67054;-59
2023/07/14 13:06:02;;;;;;;2.17;1.37;;;;;;;;;;4385800;32;68937;-58
2023/07/14 13:08:51;;;;;;;1.62;1.37;;;;;;;;;;4397331;32;59405;-58
2023/07/14 13:11:41;;;;;;;1.50;1.20;;;;;;;;;;4374931;32;71190;-58
2023/07/14 13:14:31;;;;;;;1.60;1.37;;;;;;;;;;4386334;32;69081;-57
2023/07/14 13:17:27;;;;;;;1.95;1.12;;;;;;;;;;4386240;32;66716;-58
2023/07/14 13:20:26;;;;;;;2.47;1.40;;;;;;;;;;4375218;32;71525;-58
2023/07/14 13:23:20;;;;;;;1.83;1.48;;;;;;;;;;4386275;32;70238;-57
2023/07/14 13:26:06;;;;;;;2.97;1.50;;;;;;;;;;4375091;32;69474;-58
2023/07/14 13:29:00;;;;;;;;;;;;;;;;;;4397150;32;67745;-58
2023/07/14 13:31:46;;;;;;;2.28;1.40;;;;;;;;;;4374743;32;72054;-58
2023/07/14 13:34:35;;;;;;;1.85;1.05;;;;;;;;;;4375390;32;66011;-58
2023/07/14 13:37:21;;;;;;;1.62;1.10;;;;;;;;;;4397065;32;68033;-59
2023/07/14 13:40:21;;;;;;;1.83;1.25;;;;;;;;;;4386423;32;60061;-59
2023/07/14 13:43:17;;;;;;;2.30;1.35;;;;;;;;;;4385835;32;70381;-57
2023/07/14 13:46:13;;;;;;;2.77;1.07;;;;;;;;;;4364250;32;69626;-58
2023/07/14 13:49:06;;;;;;;3.05;1.50;;;;;;;;;;4385129;32;67916;-58
2023/07/14 13:51:53;;;;;;;2.03;1.55;;;;;;;;;;4385819;32;59195;-57
2023/07/14 13:54:44;;;;;;;3.83;1.37;;;;;;;;;;4397719;32;70770;-58
2023/07/14 13:57:31;;;;;;;3.15;1.40;;;;;;;;;;4374467;32;69987;-58
2023/07/14 14:00:27;;;;;;;2.30;1.70;;;;;;;;;;4385011;32;68206;-56
2023/07/14 14:03:14;;;;;;;1.37;1.27;;;;;;;;;;4385643;32;70511;-59
2023/07/14 14:06:01;;;;;;;1.05;0.93;;;;;;;;;;4385756;32;65823;-57
2023/07/14 14:08:48;;;;;;;1.33;1.15;;;;;;;;;;4396879;32;68245;-58
2023/07/14 14:11:35;;;;;;;1.42;1.33;;;;;;;;;;4399521;32;59184;-59
2023/07/14 14:14:22;;;;;;;3.08;1.23;;;;;;;;;;4388167;32;70381;-58
2023/07/14 14:17:32;;;;;;;2.12;1.20;;;;;;;;;;4387849;32;67457;-58
2023/07/14 14:20:22;;;;;;;1.80;1.30;;;;;;;;;;4397902;32;66680;-59
2023/07/14 14:23:12;;;;;;;1.67;1.40;;;;;;;;;;4388532;32;60414;-58
2023/07/14 14:25:59;;;;;;;1.40;1.30;;;;;;;;;;4377291;32;69715;-59
2023/07/14 14:28:47;;;;;;;1.10;1.00;;;;;;;;;;4376988;32;69485;-60
2023/07/14 14:31:34;;;;;;;2.17;1.30;;;;;;;;;;4398750;32;67654;-58
2023/07/14 14:34:21;;;;;;;1.73;1.12;;;;;;;;;;4377680;32;71766;-59
2023/07/14 14:37:10;;;;;;;3.50;1.20;;;;;;;;;;4398217;32;68855;-63
2023/07/14 14:39:56;;;;;;;2.10;1.25;;;;;;;;;;4376915;32;70333;-58
2023/07/14 14:42:44;;;;;;;1.27;1.17;;;;;;;;;;4399119;32;68313;-59
2023/07/14 14:45:31;;;;;;;3.03;1.35;;;;;;;;;;4398543;32;70674;-58
2023/07/14 14:48:21;;;;;;;1.50;1.35;;;;;;;;;;4388113;32;66585;-59
2023/07/14 14:51:07;;;;;;;1.17;1.08;;;;;;;;;;4391906;32;66760;-58
2023/07/14 14:53:54;;;;;;;1.48;1.25;;;;;;;;;;4394628;32;59481;-59
2023/07/14 14:56:42;;;;;;;1.48;1.23;;;;;;;;;;4384176;32;70491;-59
2023/07/14 14:59:30;;;;;;;1.58;1.00;;;;;;;;;;4382347;32;68235;-59
2023/07/14 15:02:18;;;;;;;1.67;1.35;;;;;;;;;;4402529;32;68585;-59
2023/07/14 15:05:16;;;;;;;2.60;1.42;;;;;;;;;;4388600;32;60209;-59
2023/07/14 15:08:02;;;;;;;1.73;1.60;;;;;;;;;;4391887;32;70701;-59
2023/07/14 15:10:53;;;;;;;1.27;1.17;;;;;;;;;;4391937;32;67182;-58
2023/07/14 15:13:40;;;;;;;1.77;1.40;;;;;;;;;;4402889;32;67781;-58
2023/07/14 15:16:28;;;;;;;2.35;1.50;;;;;;;;;;4376502;32;71758;-58
2023/07/14 15:19:16;;;;;;;1.92;1.50;;;;;;;;;;4377028;32;67129;-59
2023/07/14 15:22:05;;;;;;;1.52;1.15;;;;;;;;;;4389442;32;67939;-58
2023/07/14 15:24:52;;;;;;;2.15;1.73;;;;;;;;;;4388827;32;58745;-59
2023/07/14 15:27:39;;;;;;;2.70;1.83;;;;;;;;;;4387180;32;71884;-58
2023/07/14 15:30:30;;;;;;;2.85;1.48;;;;;;;;;;4387587;32;64936;-59
2023/07/14 15:33:18;;;;;;;2.35;1.80;;;;;;;;;;4377040;32;67939;-58
2023/07/14 15:36:04;;;;;;;2.12;1.80;;;;;;;;;;4387788;32;59170;-59
2023/07/14 15:38:51;;;;;;;2.00;1.37;;;;;;;;;;4386879;32;71662;-58
2023/07/14 15:41:37;;;;;;;;;;;;;;;;;;4366210;32;68873;-58
2023/07/14 15:44:24;;;;;;;;;;;;;;;;;;4397964;32;67013;-59
2023/07/14 15:47:15;;;;;;;4.45;1.80;;;;;;;;;;4387876;32;71800;-59
2023/07/14 15:50:03;;;;;;;3.45;1.98;;;;;;;;;;4398756;32;66262;-59
2023/07/14 15:52:52;;;;;;;7.57;3.03;;;;;;;;;;4398732;32;69342;-58
2023/07/14 15:55:39;;;;;;;2.87;2.10;;;;;;;;;;4376911;32;67745;-58
2023/07/14 15:58:26;;;;;;;7.62;2.62;;;;;;;;;;4386450;32;71792;-59
2023/07/14 16:01:15;;;;;;;6.28;3.17;;;;;;;;;;4376597;32;65972;-59
2023/07/14 16:04:02;;;;;;;3.97;2.40;;;;;;;;;;4387235;32;67833;-58
2023/07/14 16:06:50;;;;;;;4.32;2.42;;;;;;;;;;4387335;32;60294;-59
2023/07/14 16:09:37;;;;;;;5.18;3.00;;;;;;;;;;4365376;32;69886;-59
2023/07/14 16:12:24;;;;;;;6.70;3.42;;;;;;;;;;4397764;32;69276;-59
2023/07/14 16:15:16;;;;;;;6.72;3.47;;;;;;;;;;4387043;32;67966;-58
2023/07/14 16:18:03;;;;;;;9.18;4.15;;;;;;;;;;4387264;32;60126;-58
2023/07/14 16:20:49;;;;;;;9.18;3.72;;;;;;;;;;3847557;37;43942;-57
2023/07/14 16:23:37;;;;;;;12.13;5.00;;;;;;;;;;4399445;32;59063;-58
2023/07/14 16:26:24;;;;;;;10.82;4.53;;;;;;;;;;4409731;32;70791;-59
2023/07/14 16:29:11;;;;;;;9.23;3.92;;;;;;;;;;4399112;32;69279;-58
2023/07/14 16:31:58;;;;;;;10.77;4.45;;;;;;;;;;4399226;32;67038;-58
2023/07/14 16:34:46;;;;;;;9.45;4.30;;;;;;;;;;4398373;32;71391;-58
2023/07/14 16:37:32;;;;;;;9.40;4.80;;;;;;;;;;4388234;32;64174;-58
2023/07/14 16:40:24;;;;;;;13.10;5.35;;;;;;;;;;4399059;32;66453;-58
2023/07/14 16:43:11;;;;;;;8.20;3.60;;;;;;;;;;4387882;32;60647;-58
2023/07/14 16:45:58;;;;;;;6.20;3.33;;;;;;;;;;4388152;32;70775;-58
2023/07/14 16:48:46;;;;;;;;;;;;;;;;;;4411218;32;65033;-59
2023/07/14 16:51:33;;;;;;;3.45;2.30;;;;;;;;;;4398927;32;68091;-58
2023/07/14 16:54:28;;;;;;;3.95;2.40;;;;;;;;;;4383133;32;60581;-58
2023/07/14 16:57:26;;;;;;;6.57;2.62;;;;;;;;;;4383526;32;70545;-58
2023/07/14 17:00:27;;;;;;;4.00;2.35;;;;;;;;;;4383372;32;69269;-59
2023/07/14 17:03:22;;;;;;;2.60;2.03;;;;;;;;;;4383641;32;67478;-58
2023/07/14 17:06:10;;;;;;;2.70;1.90;;;;;;;;;;4393931;32;70654;-58
2023/07/14 17:08:57;;;;;;;4.55;2.10;;;;;;;;;;4373212;32;65253;-58